Time;durP1;ratioP1;P1;durP2;ratioP2;P2;SDS_P1;SDS_P2;PMS_P1;PMS_P2;Temp;Humidity;BMP_temperature;BMP_pressure;BME280_temperature;BME280_humidity;BME280_pressure;Samples;Min_cycle;Max_cycle;Signal;HPM_P1;HPM_P2
2021/12/08 00:01:45;;;;;;;4.40;3.20;;;0.50;99.90;;;;;;5128014;27;20244;-52
2021/12/08 00:04:29;;;;;;;7.83;3.33;;;0.50;99.90;;;;;;5124377;27;20257;-46
2021/12/08 00:07:13;;;;;;;5.07;3.60;;;0.60;99.90;;;;;;5128114;27;20242;-46
2021/12/08 00:10:13;;;;;;;5.83;3.23;;;0.50;99.90;;;;;;5126550;27;20233;-56
2021/12/08 00:13:07;;;;;;;4.67;3.97;;;0.50;99.90;;;;;;5123782;27;20326;-48
2021/12/08 00:15:54;;;;;;;4.10;3.30;;;0.50;99.90;;;;;;5127573;27;20199;-49
2021/12/08 00:18:46;;;;;;;3.97;2.50;;;0.50;99.90;;;;;;5126704;27;20272;-50
2021/12/08 00:21:30;;;;;;;3.43;3.23;;;0.40;99.90;;;;;;5123828;27;20186;-49
2021/12/08 00:24:14;;;;;;;6.13;4.00;;;0.40;99.90;;;;;;5127176;27;20265;-52
2021/12/08 00:26:58;;;;;;;6.03;2.93;;;0.40;99.90;;;;;;5125579;27;20196;-60
2021/12/08 00:29:43;;;;;;;3.67;3.13;;;0.40;99.90;;;;;;5125047;27;20210;-58
2021/12/08 00:32:30;;;;;;;5.23;3.37;;;0.30;99.90;;;;;;5127541;27;20239;-51
2021/12/08 00:35:14;;;;;;;6.03;2.90;;;0.30;99.90;;;;;;5123170;27;20199;-61
2021/12/08 00:37:59;;;;;;;4.77;2.63;;;0.30;99.90;;;;;;5125938;27;20242;-50
2021/12/08 00:40:44;;;;;;;6.07;2.63;;;0.20;99.90;;;;;;5127224;27;20427;-52
2021/12/08 00:43:29;;;;;;;4.00;2.63;;;0.10;99.90;;;;;;5123251;27;20252;-60
2021/12/08 00:46:13;;;;;;;4.40;2.53;;;0.10;99.90;;;;;;5126968;27;20215;-50
2021/12/08 00:48:57;;;;;;;3.13;2.40;;;0.10;99.90;;;;;;5126331;27;20279;-57
2021/12/08 00:51:42;;;;;;;3.80;3.27;;;0.10;99.90;;;;;;5123417;27;20235;-49
2021/12/08 00:54:26;;;;;;;5.60;3.37;;;0.00;99.90;;;;;;5127132;27;20199;-51
2021/12/08 00:57:11;;;;;;;3.53;3.20;;;-0.10;99.90;;;;;;5126025;27;20191;-53
2021/12/08 00:59:55;;;;;;;3.23;2.63;;;-0.10;99.90;;;;;;5126259;27;20191;-59
2021/12/08 01:02:40;;;;;;;1.87;1.47;;;-0.10;99.90;;;;;;5127851;27;20234;-54
2021/12/08 01:05:28;;;;;;;2.93;2.67;;;-0.10;99.90;;;;;;5124351;27;20245;-53
2021/12/08 01:08:12;;;;;;;5.93;3.30;;;-0.10;99.90;;;;;;5126921;27;20188;-58
2021/12/08 01:11:07;;;;;;;2.93;2.73;;;-0.20;99.90;;;;;;5127558;27;20203;-50
2021/12/08 01:13:52;;;;;;;8.07;4.47;;;-0.20;99.90;;;;;;5124542;27;20200;-47
2021/12/08 01:16:37;;;;;;;6.17;1.87;;;-0.20;99.90;;;;;;5127653;27;20231;-51
2021/12/08 01:19:22;;;;;;;5.90;5.00;;;-0.20;99.90;;;;;;5127597;27;20187;-59
2021/12/08 01:22:06;;;;;;;2.70;1.50;;;-0.20;99.90;;;;;;5123934;27;20227;-54
2021/12/08 01:24:50;;;;;;;1.80;1.70;;;-0.20;99.90;;;;;;5127809;27;20231;-54
2021/12/08 01:27:36;;;;;;;3.17;2.60;;;-0.30;99.90;;;;;;5126228;27;20202;-56
2021/12/08 01:30:20;;;;;;;3.77;3.00;;;-0.20;99.90;;;;;;5125154;27;20191;-49
2021/12/08 01:33:05;;;;;;;2.80;2.37;;;-0.20;99.90;;;;;;5127724;27;20195;-50
2021/12/08 01:35:50;;;;;;;1.70;1.40;;;-0.20;99.90;;;;;;5124111;27;20288;-48
2021/12/08 01:38:35;;;;;;;7.70;3.53;;;-0.30;99.90;;;;;;5125056;27;20240;-48
2021/12/08 01:41:21;;;;;;;3.53;3.23;;;-0.20;99.90;;;;;;5127374;27;20214;-50
2021/12/08 01:47:09;;;;;;;8.00;3.07;;;-0.30;99.90;;;;;;5128084;27;20271;-46
2021/12/08 01:49:53;;;;;;;2.73;2.40;;;-0.40;99.90;;;;;;5127937;27;20249;-56
2021/12/08 01:52:40;;;;;;;6.37;3.00;;;-0.40;99.90;;;;;;5123829;28;20226;-51
2021/12/08 01:55:24;;;;;;;4.20;2.43;;;-0.30;99.90;;;;;;5127435;28;20222;-50
2021/12/08 01:58:10;;;;;;;2.03;1.87;;;-0.40;99.90;;;;;;5126121;28;20205;-52
2021/12/08 02:01:00;;;;;;;2.67;2.37;;;-0.40;99.90;;;;;;5124929;28;20188;-46
2021/12/08 02:03:45;;;;;;;6.87;3.87;;;-0.40;99.90;;;;;;5127568;28;20245;-46
2021/12/08 02:06:37;;;;;;;2.60;2.37;;;-0.40;99.90;;;;;;5125170;28;20200;-51
2021/12/08 02:09:22;;;;;;;1.97;1.67;;;-0.40;99.90;;;;;;5124281;28;20191;-45
2021/12/08 02:12:06;;;;;;;2.60;1.97;;;-0.40;99.90;;;;;;5126557;28;20215;-45
2021/12/08 02:14:51;;;;;;;2.17;1.97;;;-0.40;99.90;;;;;;5121796;28;20219;-46
2021/12/08 02:17:35;;;;;;;1.90;1.80;;;-0.40;99.90;;;;;;5122568;28;20188;-50
2021/12/08 02:20:24;;;;;;;2.13;1.73;;;-0.40;99.90;;;;;;5124893;28;20191;-49
2021/12/08 02:23:08;;;;;;;2.07;1.87;;;-0.40;99.90;;;;;;5123325;28;20248;-48
2021/12/08 02:25:52;;;;;;;2.67;1.93;;;-0.40;99.90;;;;;;5126508;28;20199;-45
2021/12/08 02:28:40;;;;;;;4.03;2.17;;;-0.40;99.90;;;;;;5120724;28;20191;-50
2021/12/08 02:31:38;;;;;;;3.33;2.50;;;-0.30;99.90;;;;;;5121742;28;20211;-52
2021/12/08 02:46:49;;;;;;;4.27;2.00;;;-0.10;99.90;;;;;;5124765;28;20268;-51
2021/12/08 02:49:36;;;;;;;3.40;2.60;;;-0.10;99.90;;;;;;5117812;28;20184;-50
2021/12/08 02:52:21;;;;;;;1.90;1.80;;;0.00;99.90;;;;;;5117198;28;20223;-54
2021/12/08 02:55:07;;;;;;;4.10;2.40;;;0.00;99.90;;;;;;5124547;28;20192;-56
2021/12/08 02:57:51;;;;;;;2.90;2.67;;;0.00;99.90;;;;;;5122324;27;20188;-55
2021/12/08 03:00:40;;;;;;;3.37;3.13;;;0.00;99.90;;;;;;5126941;27;20184;-49
2021/12/08 03:03:25;;;;;;;5.93;2.73;;;0.00;99.90;;;;;;5128231;27;20184;-54
2021/12/08 03:06:11;;;;;;;3.73;2.50;;;0.10;99.90;;;;;;5126023;27;20211;-56
2021/12/08 03:08:56;;;;;;;2.40;2.20;;;0.10;99.90;;;;;;5129537;27;20265;-53
2021/12/08 03:11:41;;;;;;;3.53;2.53;;;0.20;99.90;;;;;;5120797;27;20265;-54
2021/12/08 03:14:28;;;;;;;1.60;1.50;;;0.20;99.90;;;;;;5125459;27;20194;-55
2021/12/08 03:17:14;;;;;;;3.30;2.63;;;0.20;99.90;;;;;;5129686;27;20192;-51
2021/12/08 03:19:59;;;;;;;3.43;2.17;;;0.20;99.90;;;;;;5125256;27;20207;-57
2021/12/08 03:22:47;;;;;;;2.57;1.60;;;0.20;99.90;;;;;;5126154;27;20207;-49
2021/12/08 03:25:37;;;;;;;4.90;1.90;;;0.20;99.90;;;;;;5129376;27;20198;-53
2021/12/08 03:28:27;;;;;;;10.27;3.20;;;0.20;99.90;;;;;;5124775;27;20215;-53
2021/12/08 03:31:16;;;;;;;8.53;2.73;;;0.20;99.90;;;;;;5128055;27;20219;-53
2021/12/08 03:34:01;;;;;;;2.93;2.73;;;0.20;99.90;;;;;;5128712;27;20192;-54
2021/12/08 03:36:46;;;;;;;2.60;2.20;;;0.20;99.90;;;;;;5125429;27;20175;-53
2021/12/08 03:39:32;;;;;;;2.40;2.20;;;0.20;99.90;;;;;;5128734;27;20191;-53
2021/12/08 03:42:20;;;;;;;2.37;2.17;;;0.10;99.90;;;;;;5126136;27;20199;-59
2021/12/08 03:45:10;;;;;;;2.43;2.13;;;0.20;99.90;;;;;;5125883;27;20265;-55
2021/12/08 03:48:02;;;;;;;3.57;2.70;;;0.20;99.90;;;;;;5126470;27;20184;-57
2021/12/08 03:50:47;;;;;;;2.50;2.30;;;0.20;99.90;;;;;;5123856;27;20235;-60
2021/12/08 03:53:31;;;;;;;5.17;3.20;;;0.30;99.90;;;;;;5125327;27;20272;-51
2021/12/08 03:56:16;;;;;;;6.33;3.03;;;0.20;99.90;;;;;;5123264;27;20200;-47
2021/12/08 03:59:02;;;;;;;2.70;2.47;;;0.30;99.90;;;;;;5124869;27;20276;-54
2021/12/08 04:01:47;;;;;;;4.30;2.40;;;0.30;99.90;;;;;;5122991;27;20219;-55
2021/12/08 04:04:40;;;;;;;4.20;2.57;;;0.30;99.90;;;;;;5128282;27;20199;-56
2021/12/08 04:07:25;;;;;;;2.47;2.37;;;0.40;99.90;;;;;;5123527;27;20204;-55
2021/12/08 04:10:18;;;;;;;2.97;2.13;;;0.40;99.90;;;;;;5126825;27;20227;-53
2021/12/08 04:13:02;;;;;;;5.93;2.17;;;0.50;99.90;;;;;;5127771;27;20270;-54
2021/12/08 04:15:47;;;;;;;7.33;1.80;;;0.40;99.90;;;;;;5125237;27;20275;-49
2021/12/08 04:18:32;;;;;;;1.40;1.27;;;0.40;99.90;;;;;;5123461;27;20184;-52
2021/12/08 04:21:17;;;;;;;2.83;2.03;;;0.50;99.90;;;;;;5126446;27;20244;-52
2021/12/08 04:24:02;;;;;;;2.57;2.37;;;0.50;99.90;;;;;;5123846;27;20300;-56
2021/12/08 04:26:50;;;;;;;2.00;1.90;;;0.40;99.90;;;;;;5127960;27;20200;-51
2021/12/08 04:29:40;;;;;;;2.47;1.80;;;0.40;99.90;;;;;;5124814;27;20188;-54
2021/12/08 04:32:27;;;;;;;3.80;2.53;;;0.40;99.90;;;;;;5124087;27;20350;-48
2021/12/08 04:35:15;;;;;;;7.30;2.20;;;0.40;99.90;;;;;;5126285;27;20191;-49
2021/12/08 04:38:04;;;;;;;2.77;1.97;;;0.30;99.90;;;;;;5124299;27;20200;-53
2021/12/08 04:41:07;;;;;;;3.17;1.57;;;0.30;99.90;;;;;;5122711;27;20192;-47
2021/12/08 04:44:09;;;;;;;2.50;1.70;;;0.30;99.90;;;;;;5125775;27;20276;-49
2021/12/08 05:05:00;;;;;;;3.80;2.97;;;0.40;99.90;;;;;;5125962;27;20257;-48
2021/12/08 05:07:53;;;;;;;2.63;2.50;;;0.40;99.90;;;;;;5124701;27;20191;-55
2021/12/08 05:10:38;;;;;;;2.50;2.30;;;0.20;99.90;;;;;;5125692;27;20325;-48
2021/12/08 05:13:22;;;;;;;1.67;1.57;;;0.20;99.90;;;;;;5126401;27;20205;-59
2021/12/08 05:16:09;;;;;;;4.63;2.97;;;0.20;99.90;;;;;;5121900;27;20249;-55
2021/12/08 05:18:55;;;;;;;2.47;2.27;;;0.30;99.90;;;;;;5126145;27;20269;-53
2021/12/08 05:21:48;;;;;;;4.23;2.63;;;0.30;99.90;;;;;;5124708;27;20261;-60
2021/12/08 05:24:37;;;;;;;1.53;1.43;;;0.30;99.90;;;;;;5122814;27;20192;-56
2021/12/08 05:27:22;;;;;;;3.00;2.77;;;0.40;99.90;;;;;;5123922;27;20230;-49
2021/12/08 05:30:10;;;;;;;2.97;2.77;;;0.40;99.90;;;;;;5125186;27;20206;-59
2021/12/08 05:32:56;;;;;;;2.27;2.17;;;0.40;99.90;;;;;;5122422;27;20280;-58
2021/12/08 05:35:42;;;;;;;2.03;1.73;;;0.40;99.90;;;;;;5125723;27;20241;-51
2021/12/08 05:38:26;;;;;;;3.43;1.60;;;0.40;99.90;;;;;;5118369;27;20207;-58
2021/12/08 05:41:20;;;;;;;1.93;1.83;;;0.50;99.90;;;;;;5122486;27;20241;-58
2021/12/08 05:44:05;;;;;;;3.57;2.17;;;0.50;99.90;;;;;;5126482;27;20246;-56
2021/12/08 05:46:55;;;;;;;5.27;3.10;;;0.50;99.90;;;;;;5123146;27;20275;-53
2021/12/08 05:49:40;;;;;;;1.60;1.43;;;0.50;99.90;;;;;;5126533;27;20180;-54
2021/12/08 05:56:07;;;;;;;2.83;1.83;;;0.50;99.90;;;;;;5124714;28;20184;-61
2021/12/08 05:58:54;;;;;;;2.27;1.97;;;0.40;99.90;;;;;;5120024;27;20287;-51
2021/12/08 06:02:07;;;;;;;1.33;1.23;;;0.40;99.90;;;;;;5123299;27;20214;-57
2021/12/08 06:04:52;;;;;;;3.13;1.77;;;0.40;99.90;;;;;;5124690;27;20222;-61
2021/12/08 06:07:37;;;;;;;2.40;2.20;;;0.30;99.90;;;;;;5131236;27;20186;-58
2021/12/08 06:10:27;;;;;;;2.33;2.13;;;0.30;99.90;;;;;;5129765;27;20272;-57
2021/12/08 06:13:14;;;;;;;4.33;2.80;;;0.30;99.90;;;;;;5122031;27;20296;-56
2021/12/08 06:15:59;;;;;;;3.40;2.43;;;0.30;99.90;;;;;;5123968;27;20226;-56
2021/12/08 06:18:43;;;;;;;5.13;2.20;;;0.30;99.90;;;;;;5126681;27;20202;-60
2021/12/08 06:21:30;;;;;;;3.30;2.50;;;0.40;99.90;;;;;;5121376;27;20213;-48
2021/12/08 06:24:16;;;;;;;4.73;2.63;;;0.30;99.90;;;;;;5123047;27;20195;-53
2021/12/08 06:27:00;;;;;;;5.33;2.33;;;0.40;99.90;;;;;;5123842;27;20203;-54
2021/12/08 06:29:47;;;;;;;1.90;1.83;;;0.50;99.90;;;;;;5119853;27;20195;-54
2021/12/08 06:32:32;;;;;;;2.70;2.10;;;0.50;99.90;;;;;;5124470;27;20285;-60
2021/12/08 06:35:21;;;;;;;3.67;2.27;;;0.50;99.90;;;;;;5129759;27;20234;-55
2021/12/08 06:38:08;;;;;;;2.80;1.47;;;0.50;99.90;;;;;;5140172;27;20194;-54
2021/12/08 06:41:11;;;;;;;1.30;1.00;;;0.60;99.90;;;;;;5131922;27;20210;-49
2021/12/08 06:44:04;;;;;;;4.57;2.00;;;0.60;99.90;;;;;;5133687;27;20221;-60
2021/12/08 06:46:51;;;;;;;3.17;2.27;;;0.60;99.90;;;;;;5151731;27;20214;-55
2021/12/08 06:49:35;;;;;;;2.17;1.77;;;0.60;99.90;;;;;;5130373;27;20243;-48
2021/12/08 06:52:25;;;;;;;3.10;1.87;;;0.70;99.90;;;;;;5127372;27;20234;-56
2021/12/08 06:55:30;;;;;;;2.77;2.57;;;0.70;99.90;;;;;;5127520;27;20195;-52
2021/12/08 06:58:24;;;;;;;1.60;1.50;;;0.80;99.90;;;;;;5120019;27;20195;-57
2021/12/08 07:01:23;;;;;;;3.07;2.07;;;0.90;99.90;;;;;;5123282;27;20324;-54
2021/12/08 07:07:15;;;;;;;2.33;1.93;;;1.00;99.90;;;;;;5143865;27;20375;-50
2021/12/08 07:10:09;;;;;;;2.33;2.13;;;1.00;99.90;;;;;;5131775;27;20190;-52
2021/12/08 07:13:22;;;;;;;7.23;2.47;;;1.00;99.90;;;;;;5119748;27;20308;-45
2021/12/08 07:16:11;;;;;;;3.20;1.27;;;1.00;99.90;;;;;;5129418;27;20199;-53
2021/12/08 07:19:11;;;;;;;3.43;2.13;;;1.10;99.90;;;;;;5128793;27;20215;-58
2021/12/08 07:21:58;;;;;;;3.23;2.70;;;1.20;99.90;;;;;;5112733;27;21319;-55
2021/12/08 07:24:45;;;;;;;1.37;1.27;;;1.20;99.90;;;;;;5137623;27;20199;-49
2021/12/08 07:27:33;;;;;;;5.40;2.70;;;1.30;99.90;;;;;;5129789;27;20241;-51
2021/12/08 07:30:39;;;;;;;2.60;2.40;;;1.30;99.90;;;;;;5130643;27;20242;-50
2021/12/08 07:33:26;;;;;;;7.13;1.70;;;1.30;99.90;;;;;;5125485;27;20211;-53
2021/12/08 07:36:15;;;;;;;3.87;2.23;;;1.30;99.90;;;;;;5127767;27;20343;-55
2021/12/08 07:39:00;;;;;;;2.47;2.23;;;1.40;99.90;;;;;;5130488;27;20199;-59
2021/12/08 07:41:53;;;;;;;1.90;1.80;;;1.40;99.90;;;;;;5128555;27;20207;-54
2021/12/08 07:44:37;;;;;;;3.07;2.17;;;1.40;99.90;;;;;;5126444;27;20196;-61
2021/12/08 07:47:23;;;;;;;2.13;1.93;;;1.40;99.90;;;;;;5139254;27;20175;-55
2021/12/08 07:50:17;;;;;;;3.23;2.67;;;1.40;99.90;;;;;;5124466;27;20211;-56
2021/12/08 07:53:03;;;;;;;7.33;2.97;;;1.40;99.90;;;;;;5126799;27;20221;-61
2021/12/08 07:55:50;;;;;;;1.50;1.33;;;1.30;99.90;;;;;;5126490;27;20206;-59
2021/12/08 07:58:37;;;;;;;1.80;1.63;;;1.40;99.90;;;;;;5122554;27;20198;-58
2021/12/08 08:01:27;;;;;;;2.83;1.97;;;1.40;99.90;;;;;;5131268;27;20195;-61
2021/12/08 08:04:16;;;;;;;5.10;2.20;;;1.30;99.90;;;;;;5129474;27;20187;-60
2021/12/08 08:07:01;;;;;;;1.80;1.50;;;1.40;99.90;;;;;;5130176;27;20202;-57
2021/12/08 08:09:53;;;;;;;7.47;2.43;;;1.40;99.90;;;;;;5120791;27;20214;-56
2021/12/08 08:12:37;;;;;;;1.77;1.63;;;1.30;99.90;;;;;;5120210;27;20266;-57
2021/12/08 08:15:24;;;;;;;2.83;1.70;;;1.20;99.90;;;;;;5134672;27;20207;-57
2021/12/08 08:18:11;;;;;;;6.43;2.53;;;1.30;99.90;;;;;;5122990;27;20204;-57
2021/12/08 08:20:59;;;;;;;2.97;2.53;;;1.30;99.90;;;;;;5141558;27;20200;-55
2021/12/08 08:23:45;;;;;;;1.80;1.40;;;1.40;99.90;;;;;;5130283;27;20195;-61
2021/12/08 08:26:31;;;;;;;2.43;2.23;;;1.40;99.90;;;;;;5126933;27;20190;-56
2021/12/08 08:29:18;;;;;;;2.37;1.97;;;1.50;99.90;;;;;;5135737;27;20194;-54
2021/12/08 08:32:16;;;;;;;2.03;1.87;;;1.50;99.90;;;;;;5123500;27;20241;-58
2021/12/08 08:35:25;;;;;;;3.90;2.20;;;1.50;99.90;;;;;;5136238;27;20191;-58
2021/12/08 08:38:27;;;;;;;1.80;1.70;;;1.60;99.90;;;;;;5123577;27;20318;-61
2021/12/08 08:41:27;;;;;;;3.00;2.70;;;1.50;99.90;;;;;;5111302;27;20192;-55
2021/12/08 08:44:43;;;;;;;1.13;1.13;;;1.50;99.90;;;;;;5130256;27;20191;-61
2021/12/08 08:47:36;;;;;;;3.60;1.93;;;1.40;99.90;;;;;;5131785;27;20193;-58
2021/12/08 08:50:38;;;;;;;3.03;2.73;;;1.40;99.90;;;;;;5128436;27;20227;-54
2021/12/08 08:53:29;;;;;;;3.77;1.73;;;1.50;99.90;;;;;;5116925;27;20206;-61
2021/12/08 08:56:21;;;;;;;4.10;2.40;;;1.50;99.90;;;;;;5126151;27;20190;-55
2021/12/08 08:59:12;;;;;;;1.63;1.53;;;1.50;99.90;;;;;;5120656;27;20239;-61
2021/12/08 09:02:02;;;;;;;3.17;2.43;;;1.60;99.90;;;;;;5122791;27;20190;-56
2021/12/08 09:04:54;;;;;;;3.77;2.13;;;1.80;99.90;;;;;;5129426;27;20296;-56
2021/12/08 09:07:43;;;;;;;2.40;2.20;;;1.90;99.90;;;;;;5135129;27;20240;-62
2021/12/08 09:10:37;;;;;;;4.87;2.40;;;1.80;99.90;;;;;;5123747;27;20218;-58
2021/12/08 09:13:28;;;;;;;2.47;1.87;;;1.80;99.90;;;;;;5121437;27;20270;-59
2021/12/08 09:16:24;;;;;;;1.33;1.10;;;1.80;99.90;;;;;;5126418;27;20225;-59
2021/12/08 09:19:14;;;;;;;5.43;2.43;;;1.60;99.90;;;;;;5127722;27;20200;-60
2021/12/08 09:22:18;;;;;;;1.57;1.47;;;1.60;99.90;;;;;;5129637;27;20183;-59
2021/12/08 09:25:14;;;;;;;3.23;2.47;;;1.60;99.90;;;;;;5126381;27;20191;-57
2021/12/08 09:28:12;;;;;;;3.10;2.50;;;1.60;99.90;;;;;;5121253;27;20230;-49
2021/12/08 09:31:08;;;;;;;1.43;1.37;;;1.60;99.90;;;;;;5120340;27;20180;-58
2021/12/08 09:34:13;;;;;;;6.67;2.63;;;1.60;99.90;;;;;;5119083;27;20236;-56
2021/12/08 09:37:03;;;;;;;1.60;1.37;;;1.60;99.90;;;;;;5125843;27;20179;-54
2021/12/08 09:40:01;;;;;;;2.07;1.97;;;1.70;99.90;;;;;;5121565;27;20249;-57
2021/12/08 09:42:50;;;;;;;1.43;1.33;;;1.70;99.90;;;;;;5120611;27;20230;-51
2021/12/08 09:45:47;;;;;;;2.73;2.20;;;1.80;99.90;;;;;;5131907;27;20231;-57
2021/12/08 09:48:32;;;;;;;1.87;1.73;;;1.70;99.90;;;;;;5137539;27;20191;-53
2021/12/08 09:51:20;;;;;;;2.10;1.90;;;1.70;99.90;;;;;;5125132;27;20255;-57
2021/12/08 09:54:05;;;;;;;3.87;2.30;;;1.70;99.90;;;;;;5107417;27;20192;-50
2021/12/08 09:56:52;;;;;;;3.13;1.97;;;1.70;99.90;;;;;;5127359;27;20253;-60
2021/12/08 09:59:44;;;;;;;1.60;1.50;;;1.70;99.90;;;;;;5122141;27;20200;-58
2021/12/08 10:02:33;;;;;;;6.37;2.20;;;1.70;99.90;;;;;;5119059;27;20228;-54
2021/12/08 10:05:17;;;;;;;1.87;1.77;;;1.80;99.90;;;;;;5118538;27;20204;-59
2021/12/08 10:08:04;;;;;;;1.60;1.47;;;1.80;99.90;;;;;;5122391;27;20271;-56
2021/12/08 10:10:49;;;;;;;5.00;2.70;;;1.70;99.90;;;;;;5132167;27;20206;-56
2021/12/08 10:13:34;;;;;;;3.40;2.10;;;1.70;99.90;;;;;;5125400;27;20186;-51
2021/12/08 10:16:19;;;;;;;4.73;1.57;;;1.60;99.90;;;;;;5126478;27;20211;-60
2021/12/08 10:19:04;;;;;;;2.60;1.90;;;1.60;99.90;;;;;;5124633;27;20264;-59
2021/12/08 10:21:49;;;;;;;2.00;1.87;;;1.70;99.90;;;;;;5129392;27;20191;-54
2021/12/08 10:24:33;;;;;;;3.93;2.60;;;1.70;99.90;;;;;;5125851;27;20225;-50
2021/12/08 10:27:17;;;;;;;2.40;2.20;;;1.70;99.90;;;;;;5127862;27;20257;-54
2021/12/08 10:30:34;;;;;;;1.47;1.37;;;1.80;99.90;;;;;;5132881;27;20203;-58
2021/12/08 10:36:47;;;;;;;3.27;2.70;;;1.90;99.90;;;;;;5003367;28;20251;-60
2021/12/08 10:39:33;;;;;;;3.80;2.77;;;2.10;99.90;;;;;;4986450;28;20204;-60
2021/12/08 10:42:19;;;;;;;1.67;1.37;;;2.10;99.90;;;;;;4986564;28;20296;-59
2021/12/08 10:47:58;;;;;;;3.27;2.97;;;2.10;99.90;;;;;;5006873;28;20324;-55
2021/12/08 10:56:50;;;;;;;1.77;1.63;;;2.20;99.90;;;;;;5005807;28;20207;-55
2021/12/08 11:00:00;;;;;;;2.53;2.00;;;2.00;99.90;;;;;;4980260;28;20188;-52
2021/12/08 11:02:58;;;;;;;2.70;1.63;;;2.10;99.90;;;;;;4970751;28;20220;-58
2021/12/08 11:05:56;;;;;;;3.10;2.77;;;2.40;99.90;;;;;;4995271;28;20216;-60
2021/12/08 11:08:44;;;;;;;2.47;1.90;;;2.60;99.90;;;;;;4994952;28;20205;-56
2021/12/08 11:11:33;;;;;;;2.10;1.93;;;2.80;99.90;;;;;;5077093;27;20210;-50
2021/12/08 11:14:18;;;;;;;5.83;2.03;;;3.00;99.90;;;;;;5129055;27;20279;-58
2021/12/08 11:17:03;;;;;;;3.27;2.37;;;3.10;99.90;;;;;;5119091;27;20237;-53
2021/12/08 11:19:49;;;;;;;3.17;2.87;;;3.00;99.90;;;;;;5115133;27;20203;-51
2021/12/08 11:22:35;;;;;;;2.97;2.30;;;3.10;99.90;;;;;;5128834;27;20285;-53
2021/12/08 11:25:41;;;;;;;3.13;2.53;;;3.10;99.90;;;;;;5137020;27;20202;-54
2021/12/08 11:28:30;;;;;;;4.40;2.43;;;2.80;99.90;;;;;;5127502;27;20174;-53
2021/12/08 11:31:16;;;;;;;3.17;2.37;;;2.70;99.90;;;;;;5129397;27;20227;-54
2021/12/08 11:34:05;;;;;;;3.17;2.07;;;2.60;99.90;;;;;;5115023;27;20330;-60
2021/12/08 11:37:03;;;;;;;3.63;2.83;;;2.60;99.90;;;;;;5136052;27;20275;-54
2021/12/08 11:39:55;;;;;;;3.40;1.73;;;2.50;99.90;;;;;;5126831;27;20195;-59
2021/12/08 11:42:39;;;;;;;2.17;1.87;;;2.50;99.90;;;;;;5119319;27;20279;-55
2021/12/08 11:45:24;;;;;;;3.93;2.03;;;2.60;99.90;;;;;;5121105;27;20241;-56
2021/12/08 11:48:26;;;;;;;4.23;2.00;;;2.60;99.90;;;;;;5129131;27;20334;-58
2021/12/08 11:51:12;;;;;;;1.97;1.80;;;2.60;99.90;;;;;;5119774;27;20239;-52
2021/12/08 11:53:58;;;;;;;1.83;1.73;;;2.70;99.90;;;;;;5120375;27;20190;-53
2021/12/08 11:56:42;;;;;;;3.07;2.23;;;2.60;99.90;;;;;;5134482;27;20196;-55
2021/12/08 11:59:27;;;;;;;16.43;6.77;;;2.70;99.90;;;;;;5120137;27;20240;-52
2021/12/08 12:02:15;;;;;;;1.90;1.70;;;2.70;99.90;;;;;;5136571;27;20194;-56
2021/12/08 12:05:02;;;;;;;2.40;1.70;;;2.80;99.90;;;;;;5125184;27;20191;-51
2021/12/08 12:07:47;;;;;;;6.37;2.03;;;2.80;99.90;;;;;;5129151;27;20186;-50
2021/12/08 12:10:36;;;;;;;2.70;2.50;;;2.90;99.90;;;;;;5130284;27;20203;-58
2021/12/08 12:13:22;;;;;;;4.63;2.70;;;2.80;99.90;;;;;;5141883;27;20282;-57
2021/12/08 12:16:09;;;;;;;2.23;1.60;;;2.80;99.90;;;;;;5123740;27;20195;-55
2021/12/08 12:18:59;;;;;;;3.77;2.37;;;2.90;99.90;;;;;;5127855;27;20187;-52
2021/12/08 12:22:21;;;;;;;3.37;2.27;;;2.90;99.90;;;;;;5126078;27;20198;-58
2021/12/08 12:25:34;;;;;;;5.30;2.40;;;3.00;99.90;;;;;;5114238;27;20195;-52
2021/12/08 12:28:55;;;;;;;8.90;3.80;;;2.80;99.90;;;;;;5127911;27;20224;-47
2021/12/08 12:32:02;;;;;;;4.47;3.03;;;3.00;99.90;;;;;;5116625;27;20303;-55
2021/12/08 12:34:51;;;;;;;2.10;1.93;;;3.00;99.90;;;;;;5122405;27;20219;-56
2021/12/08 12:37:37;;;;;;;5.93;2.37;;;2.90;99.90;;;;;;5110089;27;20187;-51
2021/12/08 12:40:32;;;;;;;1.93;1.80;;;2.90;99.90;;;;;;5117896;27;20196;-51
2021/12/08 12:43:29;;;;;;;4.73;2.50;;;2.90;99.90;;;;;;5145942;27;20191;-49
2021/12/08 12:46:16;;;;;;;3.37;2.07;;;2.90;99.90;;;;;;5140925;27;20242;-57
2021/12/08 12:49:21;;;;;;;5.40;2.03;;;2.80;99.90;;;;;;5117561;27;20248;-48
2021/12/08 12:52:09;;;;;;;4.33;1.90;;;2.80;99.90;;;;;;5124495;27;20320;-58
2021/12/08 12:55:13;;;;;;;2.03;1.93;;;2.70;99.90;;;;;;5110052;27;20219;-56
2021/12/08 12:58:03;;;;;;;3.33;2.97;;;2.80;99.90;;;;;;5121809;27;20199;-51
2021/12/08 13:01:10;;;;;;;2.53;2.33;;;2.60;99.90;;;;;;5124049;27;20232;-59
2021/12/08 13:03:59;;;;;;;2.10;2.00;;;2.40;99.90;;;;;;5122034;27;20204;-54
2021/12/08 13:06:43;;;;;;;5.30;2.67;;;2.40;99.90;;;;;;5132328;27;20223;-56
2021/12/08 13:09:36;;;;;;;10.70;2.37;;;2.50;99.90;;;;;;5120345;27;20214;-56
2021/12/08 13:12:36;;;;;;;2.50;1.73;;;2.50;99.90;;;;;;5132548;27;20238;-52
2021/12/08 13:15:25;;;;;;;2.60;2.40;;;2.40;99.90;;;;;;5119889;27;20188;-48
2021/12/08 13:18:17;;;;;;;3.00;2.27;;;2.40;99.90;;;;;;5126602;27;20199;-58
2021/12/08 13:21:05;;;;;;;1.60;1.50;;;2.40;99.90;;;;;;5136796;27;20269;-54
2021/12/08 13:23:50;;;;;;;1.20;1.20;;;2.30;99.90;;;;;;5124329;27;20178;-55
2021/12/08 13:26:49;;;;;;;2.40;2.20;;;2.40;99.90;;;;;;5137330;27;20210;-53
2021/12/08 13:29:36;;;;;;;2.73;2.53;;;2.50;99.90;;;;;;5124248;27;20190;-55
2021/12/08 13:32:46;;;;;;;2.53;2.30;;;2.40;99.90;;;;;;5115446;27;20356;-55
2021/12/08 13:35:34;;;;;;;1.93;1.83;;;2.20;99.90;;;;;;5122573;27;20187;-49
2021/12/08 13:38:18;;;;;;;2.60;2.40;;;2.30;99.90;;;;;;5103623;27;20242;-54
2021/12/08 13:41:14;;;;;;;3.20;1.83;;;2.40;99.90;;;;;;5126603;27;20191;-48
2021/12/08 13:44:17;;;;;;;3.30;2.37;;;2.30;99.90;;;;;;5133441;27;20224;-58
2021/12/08 13:47:09;;;;;;;3.83;2.90;;;2.30;99.90;;;;;;5114700;27;20179;-51
2021/12/08 13:50:07;;;;;;;4.50;2.07;;;2.30;99.90;;;;;;5124748;27;20280;-48
2021/12/08 13:52:54;;;;;;;1.20;1.17;;;2.30;99.90;;;;;;5120260;27;20257;-52
2021/12/08 13:55:43;;;;;;;6.93;2.37;;;2.40;99.90;;;;;;5124096;27;20208;-52
2021/12/08 13:58:35;;;;;;;2.57;2.23;;;2.30;99.90;;;;;;5131038;27;20705;-52
2021/12/08 14:01:19;;;;;;;2.00;1.90;;;2.40;99.90;;;;;;5123569;27;20306;-54
2021/12/08 14:04:16;;;;;;;2.57;2.00;;;2.30;99.90;;;;;;5123661;27;20183;-53
2021/12/08 14:07:00;;;;;;;1.10;1.10;;;2.30;99.90;;;;;;5125536;27;20242;-48
2021/12/08 14:09:45;;;;;;;6.20;1.83;;;2.50;99.90;;;;;;5131312;27;20191;-52
2021/12/08 14:12:59;;;;;;;3.30;2.07;;;2.50;99.90;;;;;;5116039;27;20226;-48
2021/12/08 14:15:51;;;;;;;2.37;1.43;;;2.50;99.90;;;;;;5135966;27;20186;-51
2021/12/08 14:18:44;;;;;;;3.67;3.23;;;2.40;99.90;;;;;;5120337;27;20242;-47
2021/12/08 14:21:33;;;;;;;2.87;2.67;;;2.40;99.90;;;;;;5120446;27;20206;-49
2021/12/08 14:24:17;;;;;;;1.97;1.40;;;2.30;99.90;;;;;;5130333;27;20183;-46
2021/12/08 14:27:01;;;;;;;3.77;1.87;;;2.30;99.90;;;;;;5121836;27;20209;-52
2021/12/08 14:29:48;;;;;;;1.67;1.53;;;2.20;99.90;;;;;;5128416;27;20194;-51
2021/12/08 14:32:32;;;;;;;4.17;2.13;;;2.10;99.90;;;;;;5122446;27;20248;-51
2021/12/08 14:35:16;;;;;;;2.10;1.93;;;2.20;99.90;;;;;;5130455;27;20184;-54
2021/12/08 14:38:03;;;;;;;3.33;2.17;;;2.20;99.90;;;;;;5125171;27;20191;-50
2021/12/08 14:40:47;;;;;;;2.00;1.80;;;2.20;99.90;;;;;;5134622;27;20187;-47
2021/12/08 14:43:36;;;;;;;2.37;2.27;;;2.20;99.90;;;;;;5120314;27;20308;-51
2021/12/08 14:46:24;;;;;;;2.33;2.00;;;2.00;99.90;;;;;;5131020;27;20226;-50
2021/12/08 14:49:12;;;;;;;2.60;2.20;;;2.00;99.90;;;;;;5127727;27;20259;-51
2021/12/08 14:52:03;;;;;;;5.97;2.53;;;2.10;99.90;;;;;;5112624;27;20255;-48
2021/12/08 14:54:51;;;;;;;3.07;2.57;;;2.00;99.90;;;;;;5133845;27;20194;-46
2021/12/08 14:57:40;;;;;;;3.43;2.43;;;2.10;99.90;;;;;;5140250;27;20205;-48
2021/12/08 15:00:29;;;;;;;3.10;2.07;;;2.00;99.90;;;;;;5128188;27;20264;-45
2021/12/08 15:03:16;;;;;;;3.33;1.90;;;2.00;99.90;;;;;;5125030;27;20207;-54
2021/12/08 15:06:01;;;;;;;1.73;1.40;;;2.00;99.90;;;;;;5127879;27;20217;-53
2021/12/08 15:08:45;;;;;;;2.27;1.73;;;2.00;99.90;;;;;;5123297;27;20241;-54
2021/12/08 15:11:30;;;;;;;3.13;2.53;;;2.00;99.90;;;;;;5114941;27;20227;-51
2021/12/08 15:14:15;;;;;;;4.73;2.10;;;2.00;99.90;;;;;;5122046;27;20252;-57
2021/12/08 15:17:00;;;;;;;3.73;1.13;;;1.90;99.90;;;;;;5128723;27;20272;-49
2021/12/08 15:19:52;;;;;;;4.30;2.60;;;1.90;99.90;;;;;;5121123;27;20199;-55
2021/12/08 15:22:42;;;;;;;4.23;2.23;;;1.90;99.90;;;;;;5126169;27;20212;-48
2021/12/08 15:25:28;;;;;;;2.90;2.60;;;2.00;99.90;;;;;;5125539;27;21300;-48
2021/12/08 15:28:15;;;;;;;2.97;2.43;;;2.00;99.90;;;;;;5138117;27;20224;-51
2021/12/08 15:31:01;;;;;;;3.87;1.87;;;2.10;99.90;;;;;;5132167;27;20279;-49
2021/12/08 15:33:48;;;;;;;2.30;1.73;;;2.10;99.90;;;;;;5132337;27;20308;-55
2021/12/08 15:36:34;;;;;;;4.00;1.90;;;2.00;99.90;;;;;;5143100;27;20201;-58
2021/12/08 15:39:22;;;;;;;3.47;2.57;;;2.10;99.90;;;;;;5128989;27;20194;-56
2021/12/08 15:42:10;;;;;;;2.33;2.13;;;2.00;99.90;;;;;;5117832;27;20248;-51
2021/12/08 15:45:06;;;;;;;2.20;1.87;;;1.90;99.90;;;;;;5138678;27;20226;-59